sim
Sign-in with your pilot id or email,
or register
Callsign
Passwort

Schedule Details

Flight Number: DLH2018
Departure: Munich Airport (EDDM) at 16:30
Arrival: Dusseldorf International Airport (EDDL) at 17:40
Route: Lufthansa Passenger Schedule. Enter filed route here before submitting Pirep.

Weather Information
Getting current METAR information for EDDM 260650Z 27012KT 9999 -RADZ FEW012 SCT016 BKN030 07/05 Q0999 BECMG 27015G25KT
Getting current METAR information for EDDL 260650Z 36008KT 8000 SCT003 BKN006 10/10 Q0995 TEMPO 4000 DZ

Schedule Frequency

Route Map